Terminal Aerodrome Forecast
Issued by NWS

Home | Current Version | Previous Version | Text Only | Print | Product List | Glossary On
Versions: 1 2 3 4 5 6 7 8 9 10 11 12 13
000
FTUS41 KBTV 251136
TAFMPV
TAF
KMPV 251136Z 2512/2612 VRB03KT P6SM OVC080
     FM251700 19008KT P6SM -SHRA OVC050
     FM260000 17005KT P6SM -SHRA OVC050
     FM260500 21009KT P6SM OVC060=

USA.gov is the U.S. government's official web portal to all federal, state and local government web resources and services.